Time;durP1;ratioP1;P1;durP2;ratioP2;P2;SDS_P1;SDS_P2;PMS_P1;PMS_P2;Temp;Humidity;BMP_temperature;BMP_pressure;BME280_temperature;BME280_humidity;BME280_pressure;Samples;Min_cycle;Max_cycle;Signal;HPM_P1;HPM_P2
2023/04/03 00:00:09;;;;;;;2.35;2.13;;;5.50;99.90;;;;;;5031225;28;20052;-53
2023/04/03 00:02:35;;;;;;;2.30;2.10;;;5.50;99.90;;;;;;5031159;28;20460;-47
2023/04/03 00:05:00;;;;;;;2.30;2.10;;;5.50;99.90;;;;;;5031003;28;20097;-51
2023/04/03 00:07:26;;;;;;;2.08;1.77;;;5.50;99.90;;;;;;5030646;28;20021;-47
2023/04/03 00:09:51;;;;;;;3.08;2.22;;;5.50;99.90;;;;;;5031245;28;20017;-47
2023/04/03 00:12:17;;;;;;;5.32;2.22;;;5.50;99.90;;;;;;5030877;28;20037;-51
2023/04/03 00:14:42;;;;;;;3.40;2.00;;;5.50;99.90;;;;;;5032318;28;20033;-48
2023/04/03 00:17:08;;;;;;;3.03;2.67;;;5.40;99.90;;;;;;5034483;28;20033;-48
2023/04/03 00:19:34;;;;;;;2.33;1.83;;;5.40;99.90;;;;;;5034763;28;20447;-51
2023/04/03 00:22:00;;;;;;;5.15;2.88;;;5.50;99.90;;;;;;5034729;28;20025;-50
2023/04/03 00:24:25;;;;;;;2.88;2.10;;;5.50;99.90;;;;;;5034773;28;20032;-52
2023/04/03 00:26:51;;;;;;;3.63;2.05;;;5.60;99.90;;;;;;5034780;28;20056;-48
2023/04/03 00:29:16;;;;;;;2.30;2.10;;;5.60;99.90;;;;;;5034610;28;20033;-46
2023/04/03 00:31:43;;;;;;;3.88;2.13;;;5.50;99.90;;;;;;5034970;28;20055;-47
2023/04/03 00:34:09;;;;;;;2.75;2.22;;;5.50;99.90;;;;;;5034616;28;20404;-47
2023/04/03 00:36:34;;;;;;;5.47;2.00;;;5.40;99.90;;;;;;5034578;28;20420;-48
2023/04/03 00:39:00;;;;;;;2.55;2.20;;;5.40;99.90;;;;;;5034314;28;20026;-51
2023/04/03 00:41:25;;;;;;;3.28;1.95;;;5.40;99.90;;;;;;5034309;28;20025;-47
2023/04/03 00:43:52;;;;;;;2.42;1.85;;;5.40;99.90;;;;;;5034553;28;20028;-48
2023/04/03 00:46:17;;;;;;;1.90;1.80;;;5.30;99.90;;;;;;5034410;28;20044;-47
2023/04/03 00:48:45;;;;;;;3.78;2.20;;;5.30;99.90;;;;;;5034322;28;20030;-47
2023/04/03 00:51:19;;;;;;;2.50;1.92;;;5.30;99.90;;;;;;5034058;28;20025;-47
2023/04/03 00:53:50;;;;;;;2.92;1.80;;;5.30;99.90;;;;;;5034297;28;20108;-48
2023/04/03 00:56:19;;;;;;;5.05;2.35;;;5.30;99.90;;;;;;5034201;28;20025;-49
2023/04/03 00:58:55;;;;;;;3.85;2.17;;;5.40;99.90;;;;;;5034006;28;20554;-50
2023/04/03 01:01:26;;;;;;;7.07;2.70;;;5.40;99.90;;;;;;5033900;28;20128;-47
2023/04/03 01:03:52;;;;;;;4.97;2.50;;;5.50;99.90;;;;;;5034179;28;20054;-47
2023/04/03 01:06:23;;;;;;;3.42;2.67;;;5.50;99.90;;;;;;5033941;28;20516;-48
2023/04/03 01:08:50;;;;;;;4.00;2.08;;;5.50;99.90;;;;;;5034013;28;20033;-47
2023/04/03 01:11:15;;;;;;;5.60;2.50;;;5.40;99.90;;;;;;5033765;28;20489;-48
2023/04/03 01:13:41;;;;;;;4.63;2.33;;;5.40;99.90;;;;;;5033806;28;20053;-47
2023/04/03 01:16:07;;;;;;;4.15;2.08;;;5.40;99.90;;;;;;5033758;28;20389;-47
2023/04/03 01:18:37;;;;;;;5.57;1.83;;;5.40;99.90;;;;;;5033826;28;20032;-47
2023/04/03 01:21:23;;;;;;;4.53;2.45;;;5.40;99.90;;;;;;5033499;28;20018;-49
2023/04/03 01:23:54;;;;;;;4.03;1.98;;;5.40;99.90;;;;;;5033379;28;20029;-49
2023/04/03 01:26:19;;;;;;;7.25;2.40;;;5.30;99.90;;;;;;5033132;28;20076;-52
2023/04/03 01:28:45;;;;;;;6.53;2.15;;;5.30;99.90;;;;;;5033434;28;20056;-47
2023/04/03 01:31:22;;;;;;;3.17;1.88;;;5.30;99.90;;;;;;5033161;28;20029;-45
2023/04/03 01:33:47;;;;;;;3.03;2.05;;;5.30;99.90;;;;;;5033540;28;20404;-46
2023/04/03 01:36:28;;;;;;;5.25;3.00;;;5.30;99.90;;;;;;5015633;28;20079;-50
2023/04/03 01:38:55;;;;;;;4.88;2.38;;;5.30;99.90;;;;;;5033349;28;20450;-46
2023/04/03 01:41:21;;;;;;;4.10;2.00;;;5.20;99.90;;;;;;5033269;28;20436;-49
2023/04/03 01:43:47;;;;;;;3.20;1.85;;;5.20;99.90;;;;;;5033374;28;20389;-49
2023/04/03 01:46:13;;;;;;;7.53;1.95;;;5.20;99.90;;;;;;5033347;28;20035;-48
2023/04/03 01:48:39;;;;;;;2.78;1.73;;;5.20;99.90;;;;;;5033146;28;20072;-51
2023/04/03 01:51:05;;;;;;;3.03;1.80;;;5.20;99.90;;;;;;5033596;28;20492;-50
2023/04/03 01:53:30;;;;;;;4.28;2.25;;;5.20;99.90;;;;;;5033505;28;20024;-53
2023/04/03 01:55:56;;;;;;;4.00;1.95;;;5.20;99.90;;;;;;5033375;28;20048;-47
2023/04/03 01:58:21;;;;;;;5.25;3.40;;;5.20;99.90;;;;;;5033815;28;20048;-49
2023/04/03 02:00:48;;;;;;;5.63;2.13;;;5.20;99.90;;;;;;5033915;28;20026;-49
2023/04/03 02:03:13;;;;;;;5.63;2.28;;;5.20;99.90;;;;;;5032745;28;20029;-52
2023/04/03 02:05:39;;;;;;;2.55;1.90;;;5.30;99.90;;;;;;5032234;28;20025;-53
2023/04/03 02:08:04;;;;;;;3.13;2.03;;;5.20;99.90;;;;;;5032497;28;20036;-47
2023/04/03 02:10:30;;;;;;;5.03;2.38;;;5.20;99.90;;;;;;5032876;28;20033;-48
2023/04/03 02:12:55;;;;;;;2.17;1.98;;;5.20;99.90;;;;;;5032521;28;20034;-49
2023/04/03 02:15:21;;;;;;;3.05;2.20;;;5.20;99.90;;;;;;5032554;28;20446;-47
2023/04/03 02:17:46;;;;;;;4.88;1.95;;;5.20;99.90;;;;;;5032203;28;20026;-49
2023/04/03 02:20:12;;;;;;;3.05;2.28;;;5.10;99.90;;;;;;5032499;28;20036;-47
2023/04/03 02:22:38;;;;;;;2.72;2.08;;;5.10;99.90;;;;;;5032414;28;20553;-49
2023/04/03 02:25:03;;;;;;;3.85;2.00;;;5.10;99.90;;;;;;5032628;28;20055;-47
2023/04/03 02:27:29;;;;;;;4.32;1.80;;;5.10;99.90;;;;;;5032089;28;20051;-48
2023/04/03 02:29:55;;;;;;;3.42;2.47;;;5.00;99.90;;;;;;5032722;28;20032;-47
2023/04/03 02:32:20;;;;;;;3.13;1.92;;;5.10;99.90;;;;;;5032466;28;20547;-47
2023/04/03 02:34:46;;;;;;;3.35;1.90;;;5.00;99.90;;;;;;5032744;28;20026;-52
2023/04/03 02:37:11;;;;;;;4.90;2.00;;;5.00;99.90;;;;;;5032058;28;20033;-48
2023/04/03 02:39:37;;;;;;;3.17;1.83;;;5.00;99.90;;;;;;5031349;28;20036;-47
2023/04/03 02:42:03;;;;;;;3.13;2.00;;;5.00;99.90;;;;;;5031996;28;20104;-51
2023/04/03 02:44:28;;;;;;;2.22;1.83;;;5.00;99.90;;;;;;5032385;28;20022;-47
2023/04/03 02:46:54;;;;;;;2.08;1.83;;;5.00;99.90;;;;;;5032283;28;20321;-47
2023/04/03 02:49:19;;;;;;;3.65;1.95;;;5.00;99.90;;;;;;5032076;28;20108;-47
2023/04/03 02:51:45;;;;;;;3.92;2.10;;;4.90;99.90;;;;;;5031800;28;20048;-51
2023/04/03 02:54:11;;;;;;;4.47;2.10;;;5.00;99.90;;;;;;5032100;28;20104;-50
2023/04/03 02:56:36;;;;;;;2.08;1.98;;;5.00;99.90;;;;;;5031997;28;20100;-49
2023/04/03 02:59:03;;;;;;;4.20;2.30;;;4.90;99.90;;;;;;5031716;28;20026;-47
2023/04/03 03:01:31;;;;;;;2.47;1.60;;;4.90;99.90;;;;;;5031484;28;20096;-49
2023/04/03 03:03:57;;;;;;;4.20;2.38;;;4.90;99.90;;;;;;5031804;28;20049;-48
2023/04/03 03:06:23;;;;;;;6.45;2.13;;;4.90;99.90;;;;;;5031569;28;20465;-50
2023/04/03 03:08:48;;;;;;;3.30;2.17;;;4.90;99.90;;;;;;5031753;28;20025;-48
2023/04/03 03:11:14;;;;;;;4.30;2.00;;;4.90;99.90;;;;;;5031767;28;20051;-49
2023/04/03 03:13:39;;;;;;;6.65;2.63;;;4.90;99.90;;;;;;5031282;28;20026;-50
2023/04/03 03:16:05;;;;;;;3.53;2.60;;;4.90;99.90;;;;;;5031516;28;20105;-49
2023/04/03 03:18:31;;;;;;;3.20;2.10;;;4.90;99.90;;;;;;5031411;28;20501;-47
2023/04/03 03:20:58;;;;;;;5.65;2.20;;;4.80;99.90;;;;;;5031735;28;20032;-46
2023/04/03 03:23:26;;;;;;;11.68;2.22;;;4.80;99.90;;;;;;5031438;28;20029;-49
2023/04/03 03:25:56;;;;;;;4.63;2.33;;;4.80;99.90;;;;;;5031452;28;20485;-46
2023/04/03 03:28:22;;;;;;;1.92;1.83;;;4.80;99.90;;;;;;5031202;28;20017;-46
2023/04/03 03:30:47;;;;;;;5.68;2.00;;;4.80;99.90;;;;;;5031318;28;20076;-46
2023/04/03 03:33:13;;;;;;;4.45;2.30;;;4.70;99.90;;;;;;5030920;28;20492;-46
2023/04/03 03:35:38;;;;;;;6.53;2.40;;;4.70;99.90;;;;;;5031334;28;20105;-50
2023/04/03 03:38:04;;;;;;;4.47;2.28;;;4.70;99.90;;;;;;5031635;28;20088;-46
2023/04/03 03:40:29;;;;;;;2.72;1.50;;;4.70;99.90;;;;;;5031585;28;20022;-48
2023/04/03 03:42:55;;;;;;;2.90;1.70;;;4.70;99.90;;;;;;5031086;28;20095;-48
2023/04/03 03:45:20;;;;;;;6.70;2.15;;;4.70;99.90;;;;;;5031203;28;20065;-47
2023/04/03 03:47:46;;;;;;;1.80;1.70;;;4.70;99.90;;;;;;5046733;28;20049;-47
2023/04/03 03:50:11;;;;;;;2.17;1.88;;;4.70;99.90;;;;;;5033552;28;20029;-47
2023/04/03 03:52:37;;;;;;;3.45;1.92;;;4.70;99.90;;;;;;5017435;28;20033;-47
2023/04/03 03:55:02;;;;;;;5.20;1.80;;;4.70;99.90;;;;;;5035487;28;20067;-47
2023/04/03 03:57:28;;;;;;;8.75;3.05;;;4.70;99.90;;;;;;5035340;28;20108;-48
2023/04/03 03:59:54;;;;;;;2.85;2.15;;;4.70;99.90;;;;;;5035398;28;20072;-47
2023/04/03 04:02:20;;;;;;;4.40;2.10;;;4.70;99.90;;;;;;5035128;28;20043;-47
2023/04/03 04:04:45;;;;;;;2.42;2.08;;;4.70;99.90;;;;;;5035069;28;20118;-51
2023/04/03 04:07:11;;;;;;;4.43;2.15;;;4.80;99.90;;;;;;5034802;28;20071;-45
2023/04/03 04:09:36;;;;;;;2.33;1.67;;;4.70;99.90;;;;;;5035050;28;20408;-46
2023/04/03 04:12:02;;;;;;;2.75;2.03;;;4.80;99.90;;;;;;5034935;28;20030;-48
2023/04/03 04:14:28;;;;;;;9.50;2.03;;;4.80;99.90;;;;;;5035689;28;20393;-54
2023/04/03 04:16:53;;;;;;;5.70;2.70;;;4.80;99.90;;;;;;5035230;28;20091;-48
2023/04/03 04:19:19;;;;;;;1.80;1.52;;;4.80;99.90;;;;;;5050773;28;20075;-48
2023/04/03 04:21:45;;;;;;;3.10;2.10;;;4.80;99.90;;;;;;5035484;28;20080;-51
2023/04/03 04:24:11;;;;;;;3.75;2.03;;;4.80;99.90;;;;;;5035199;28;20056;-50
2023/04/03 04:26:36;;;;;;;7.93;1.70;;;4.80;99.90;;;;;;5035325;28;20061;-50
2023/04/03 04:29:02;;;;;;;3.13;2.00;;;4.80;99.90;;;;;;5035192;28;20044;-46
2023/04/03 04:31:28;;;;;;;3.80;1.83;;;4.80;99.90;;;;;;5035211;28;20405;-47
2023/04/03 04:33:53;;;;;;;16.30;2.85;;;4.80;99.90;;;;;;5035560;28;20056;-46
2023/04/03 04:36:19;;;;;;;6.68;1.83;;;4.70;99.90;;;;;;5034772;28;20083;-47
2023/04/03 04:38:45;;;;;;;5.13;2.10;;;4.70;99.90;;;;;;5035038;28;20056;-51
2023/04/03 04:41:10;;;;;;;4.05;1.58;;;4.60;99.90;;;;;;5034951;28;20076;-48
2023/04/03 04:43:36;;;;;;;7.32;3.08;;;4.60;99.90;;;;;;5034728;28;20029;-49
2023/04/03 04:46:08;;;;;;;3.28;1.63;;;4.60;99.90;;;;;;5034434;28;20033;-47
2023/04/03 04:48:34;;;;;;;2.72;2.00;;;4.60;99.90;;;;;;5034273;28;20065;-44
2023/04/03 04:51:00;;;;;;;3.42;1.30;;;4.60;99.90;;;;;;5034126;28;20037;-49
2023/04/03 04:53:26;;;;;;;2.13;1.50;;;4.60;99.90;;;;;;5034518;28;20026;-47
2023/04/03 04:55:52;;;;;;;5.03;1.95;;;4.50;99.90;;;;;;5035025;28;20497;-49
2023/04/03 04:58:18;;;;;;;5.18;2.10;;;4.50;99.90;;;;;;5035537;28;20112;-46
2023/04/03 05:00:44;;;;;;;3.40;1.65;;;4.50;99.90;;;;;;5034495;28;20561;-48
2023/04/03 05:03:10;;;;;;;5.55;1.70;;;4.40;99.90;;;;;;5035358;28;20035;-51
2023/04/03 05:05:35;;;;;;;6.05;2.53;;;4.40;99.90;;;;;;5050372;28;20036;-44
2023/04/03 05:08:02;;;;;;;3.88;1.30;;;4.40;99.90;;;;;;5034137;28;20481;-46
2023/04/03 05:10:27;;;;;;;9.20;1.73;;;4.30;99.90;;;;;;5033671;28;20512;-46
2023/04/03 05:12:53;;;;;;;5.63;2.35;;;4.30;99.90;;;;;;5033725;28;20029;-46
2023/04/03 05:15:19;;;;;;;3.75;1.52;;;4.20;99.90;;;;;;5033970;28;20056;-52
2023/04/03 05:17:44;;;;;;;4.03;1.67;;;4.30;99.90;;;;;;5033483;28;20061;-49
2023/04/03 05:20:10;;;;;;;7.55;2.30;;;4.30;99.90;;;;;;5033723;28;20075;-53
2023/04/03 05:22:36;;;;;;;7.55;1.85;;;4.20;99.90;;;;;;5033405;28;20033;-48
2023/04/03 05:25:02;;;;;;;4.38;1.90;;;4.20;99.90;;;;;;5033601;28;20561;-45
2023/04/03 05:27:30;;;;;;;7.25;1.92;;;4.30;99.90;;;;;;5033659;28;20029;-50
2023/04/03 05:29:55;;;;;;;1.98;1.83;;;4.20;99.90;;;;;;5033964;28;20429;-52
2023/04/03 05:32:23;;;;;;;3.47;1.75;;;4.20;99.90;;;;;;5033639;28;20097;-49
2023/04/03 05:34:48;;;;;;;7.00;1.80;;;4.20;99.90;;;;;;5033527;28;20029;-48
2023/04/03 05:37:14;;;;;;;7.75;1.65;;;4.20;99.90;;;;;;5033358;28;20508;-50
2023/04/03 05:39:40;;;;;;;4.25;2.10;;;4.20;99.90;;;;;;5033331;28;20104;-49
2023/04/03 05:42:06;;;;;;;3.33;1.88;;;4.20;99.90;;;;;;5015237;28;20022;-46
2023/04/03 05:44:32;;;;;;;5.88;2.38;;;4.20;99.90;;;;;;5033523;28;20505;-47
2023/04/03 05:46:58;;;;;;;5.22;1.50;;;4.40;99.90;;;;;;5033450;28;20045;-47
2023/04/03 05:49:23;;;;;;;5.30;2.30;;;4.50;99.90;;;;;;5033046;28;20623;-49
2023/04/03 05:51:49;;;;;;;4.60;2.35;;;4.60;99.90;;;;;;5032663;28;20037;-43
2023/04/03 05:54:27;;;;;;;6.88;2.17;;;4.40;99.90;;;;;;5033691;28;20029;-45
2023/04/03 05:56:52;;;;;;;5.80;1.85;;;4.40;99.90;;;;;;5033301;28;20109;-44
2023/04/03 05:59:19;;;;;;;3.50;1.67;;;4.30;99.90;;;;;;5032850;28;20121;-50
2023/04/03 06:01:45;;;;;;;5.18;1.63;;;4.40;99.90;;;;;;5032778;28;20018;-48
2023/04/03 06:04:12;;;;;;;4.80;2.00;;;4.40;99.90;;;;;;5032714;28;20025;-48
2023/04/03 06:06:45;;;;;;;5.20;1.98;;;4.40;99.90;;;;;;5032497;28;20022;-53
2023/04/03 06:09:10;;;;;;;7.82;1.90;;;4.30;99.90;;;;;;5032541;28;20021;-50
2023/04/03 06:11:36;;;;;;;3.78;1.70;;;4.20;99.90;;;;;;5032601;28;20033;-46
2023/04/03 06:14:01;;;;;;;2.70;1.98;;;4.30;99.90;;;;;;5032675;28;20489;-49
2023/04/03 06:16:27;;;;;;;6.90;2.17;;;4.30;99.90;;;;;;5032353;28;20030;-50
2023/04/03 06:18:52;;;;;;;4.78;1.65;;;4.30;99.90;;;;;;5032714;28;20501;-46
2023/04/03 06:21:17;;;;;;;7.20;3.58;;;4.20;99.90;;;;;;5032193;28;20099;-49
2023/04/03 06:23:43;;;;;;;6.43;2.17;;;4.20;99.90;;;;;;5032333;28;20030;-48
2023/04/03 06:26:08;;;;;;;4.55;2.08;;;4.30;99.90;;;;;;5032275;28;20021;-51
2023/04/03 06:28:34;;;;;;;6.63;2.45;;;4.30;99.90;;;;;;5032341;28;20013;-50
2023/04/03 06:31:00;;;;;;;7.47;2.35;;;4.50;99.90;;;;;;5032112;28;20060;-51
2023/04/03 06:33:26;;;;;;;6.03;2.30;;;4.90;99.90;;;;;;5032233;28;20095;-51
2023/04/03 06:35:56;;;;;;;5.00;1.80;;;5.80;99.90;;;;;;5032214;28;20026;-54
2023/04/03 06:38:22;;;;;;;3.03;1.92;;;6.60;99.90;;;;;;5032402;28;20060;-46
2023/04/03 06:40:47;;;;;;;3.38;2.30;;;7.30;99.90;;;;;;5032055;28;20065;-51
2023/04/03 06:43:13;;;;;;;3.88;2.20;;;7.80;99.90;;;;;;5032005;28;20508;-48
2023/04/03 06:45:38;;;;;;;3.80;2.15;;;8.40;99.90;;;;;;5014306;28;20013;-46
2023/04/03 06:48:05;;;;;;;7.13;1.70;;;8.60;99.90;;;;;;5031937;28;20033;-49
2023/04/03 06:50:30;;;;;;;3.92;1.92;;;9.00;99.90;;;;;;5031834;28;20022;-51
2023/04/03 06:52:56;;;;;;;4.18;1.70;;;9.30;99.30;;;;;;5031649;28;20036;-48
2023/04/03 06:55:22;;;;;;;3.15;1.73;;;9.30;99.90;;;;;;5031878;28;20037;-50
2023/04/03 06:57:47;;;;;;;5.25;1.92;;;9.20;99.90;;;;;;5031858;28;20169;-47
2023/04/03 07:00:14;;;;;;;6.10;1.88;;;9.20;99.90;;;;;;5031886;28;20140;-52
2023/04/03 07:02:40;;;;;;;4.95;2.28;;;9.60;99.90;;;;;;5031618;28;20100;-49
2023/04/03 07:05:06;;;;;;;6.80;2.13;;;9.80;98.20;;;;;;5031856;28;20013;-52
2023/04/03 07:07:33;;;;;;;2.55;1.45;;;9.60;98.10;;;;;;5031592;28;20517;-45
2023/04/03 07:09:59;;;;;;;5.47;2.03;;;9.20;98.50;;;;;;5031952;28;20029;-49
2023/04/03 07:12:25;;;;;;;3.47;1.75;;;9.00;98.80;;;;;;5031479;28;20028;-50
2023/04/03 07:14:50;;;;;;;4.30;2.20;;;8.70;99.30;;;;;;5031662;28;20481;-52
2023/04/03 07:17:16;;;;;;;6.78;2.03;;;9.10;98.80;;;;;;5031557;28;20033;-45
2023/04/03 07:19:41;;;;;;;5.72;1.90;;;9.40;98.70;;;;;;5031486;28;20037;-46
2023/04/03 07:22:07;;;;;;;2.90;1.77;;;9.60;97.90;;;;;;5031131;28;20116;-53
2023/04/03 07:24:33;;;;;;;4.60;1.70;;;9.50;97.80;;;;;;5030575;28;20017;-51
2023/04/03 07:26:58;;;;;;;5.03;2.40;;;9.20;97.90;;;;;;5031452;28;20452;-47
2023/04/03 07:29:24;;;;;;;6.60;1.75;;;9.50;98.00;;;;;;5026679;28;20033;-47
2023/04/03 07:31:49;;;;;;;10.48;2.45;;;9.40;97.90;;;;;;5012791;28;20064;-48
2023/04/03 07:34:15;;;;;;;4.20;1.75;;;10.40;95.80;;;;;;5039133;28;20102;-46
2023/04/03 07:36:41;;;;;;;3.03;1.40;;;10.50;96.10;;;;;;5031290;28;20075;-48
2023/04/03 07:39:07;;;;;;;4.45;2.83;;;10.10;96.40;;;;;;5031324;28;20022;-46
2023/04/03 07:41:33;;;;;;;6.45;1.90;;;10.00;96.60;;;;;;5030771;28;20063;-48
2023/04/03 07:43:59;;;;;;;4.32;2.00;;;9.70;97.00;;;;;;5031488;28;20064;-47
2023/04/03 07:46:24;;;;;;;10.00;2.78;;;10.30;96.60;;;;;;5030572;28;20401;-45
2023/04/03 07:48:50;;;;;;;4.53;1.60;;;10.80;95.90;;;;;;5014465;28;20162;-50
2023/04/03 07:51:16;;;;;;;2.78;1.80;;;11.00;95.00;;;;;;5014571;28;20044;-49
2023/04/03 07:53:41;;;;;;;3.47;1.98;;;10.30;95.20;;;;;;5031247;28;20021;-51
2023/04/03 07:56:08;;;;;;;3.35;1.83;;;10.20;95.40;;;;;;5031294;28;20101;-47
2023/04/03 07:58:33;;;;;;;4.80;2.08;;;10.40;95.90;;;;;;5030547;28;20500;-51
2023/04/03 08:00:59;;;;;;;6.07;2.13;;;10.10;95.80;;;;;;5031004;28;20040;-47
2023/04/03 08:03:25;;;;;;;4.70;2.85;;;9.80;96.10;;;;;;5031253;28;20021;-49
2023/04/03 08:05:51;;;;;;;3.13;2.03;;;9.80;95.90;;;;;;5038016;28;20048;-51
2023/04/03 08:08:19;;;;;;;4.35;2.25;;;9.60;95.90;;;;;;5051430;28;20021;-52
2023/04/03 08:10:52;;;;;;;5.93;2.13;;;9.60;96.20;;;;;;5033243;28;20025;-54
2023/04/03 08:13:18;;;;;;;7.07;2.13;;;9.70;96.00;;;;;;5023403;28;20120;-53
2023/04/03 08:15:43;;;;;;;5.45;1.90;;;9.60;96.00;;;;;;5022064;28;20112;-54
2023/04/03 08:18:09;;;;;;;5.70;2.22;;;9.70;96.40;;;;;;5023706;28;20148;-51
2023/04/03 08:20:35;;;;;;;2.67;2.08;;;9.60;96.00;;;;;;5011012;28;20446;-48
2023/04/03 08:23:00;;;;;;;10.43;2.10;;;9.60;96.50;;;;;;5024256;28;20060;-45
2023/04/03 08:25:26;;;;;;;3.25;1.58;;;10.00;95.80;;;;;;5031094;28;20421;-51
2023/04/03 08:27:51;;;;;;;6.18;1.88;;;10.00;95.50;;;;;;5030819;28;20388;-55
2023/04/03 08:30:17;;;;;;;6.88;2.17;;;10.20;94.80;;;;;;5030967;28;20136;-49
2023/04/03 08:32:43;;;;;;;3.50;2.20;;;10.60;95.10;;;;;;5029697;28;20029;-51
2023/04/03 08:35:09;;;;;;;3.67;1.58;;;10.90;94.30;;;;;;5004507;28;20033;-48
2023/04/03 08:37:36;;;;;;;3.92;1.83;;;10.90;94.60;;;;;;5013533;28;20038;-50
2023/04/03 08:40:06;;;;;;;4.45;1.80;;;10.50;95.00;;;;;;5029281;28;20029;-50
2023/04/03 08:42:56;;;;;;;5.35;1.80;;;10.60;94.70;;;;;;5034206;28;20064;-52
2023/04/03 08:45:52;;;;;;;7.00;2.15;;;10.70;93.70;;;;;;5034670;28;20040;-51
2023/04/03 08:48:26;;;;;;;3.42;1.75;;;10.30;93.90;;;;;;5033275;28;20501;-48
2023/04/03 08:50:57;;;;;;;4.35;2.05;;;10.20;93.80;;;;;;5016810;28;20030;-48
2023/04/03 08:53:28;;;;;;;4.88;1.67;;;10.80;93.90;;;;;;5001299;28;20270;-44
2023/04/03 08:55:55;;;;;;;4.93;1.65;;;10.80;99.90;;;;;;5034758;28;20082;-47
2023/04/03 08:58:26;;;;;;;6.35;1.80;;;10.60;99.90;;;;;;5034483;28;20401;-50
2023/04/03 09:01:00;;;;;;;6.43;1.77;;;11.00;99.90;;;;;;5034020;28;20025;-48
2023/04/03 09:03:30;;;;;;;4.30;1.60;;;11.70;91.40;;;;;;5034501;28;20025;-48
2023/04/03 09:06:06;;;;;;;6.10;1.75;;;11.60;91.40;;;;;;5033323;28;20384;-49
2023/04/03 09:09:01;;;;;;;4.38;2.42;;;10.90;92.10;;;;;;5020652;28;20075;-47
2023/04/03 09:11:47;;;;;;;7.60;2.05;;;9.80;93.90;;;;;;5019157;28;20389;-51
2023/04/03 09:14:21;;;;;;;7.93;2.22;;;9.50;93.90;;;;;;5015109;28;20422;-47
2023/04/03 09:16:59;;;;;;;3.15;1.88;;;10.20;93.50;;;;;;5032248;28;20034;-47
2023/04/03 09:19:31;;;;;;;2.30;1.60;;;10.80;92.70;;;;;;5032560;28;20108;-47
2023/04/03 09:22:26;;;;;;;4.88;1.77;;;11.20;92.40;;;;;;5033879;28;20048;-47
2023/04/03 09:25:18;;;;;;;3.47;1.73;;;10.20;92.80;;;;;;5009706;28;20034;-49
2023/04/03 09:27:44;;;;;;;13.13;7.00;;;9.20;93.80;;;;;;5014032;28;20108;-50
2023/04/03 09:30:17;;;;;;;48.20;24.42;;;8.50;95.20;;;;;;5023591;28;20017;-52
2023/04/03 09:32:48;;;;;;;4.55;1.80;;;7.70;95.60;;;;;;5032532;28;20463;-45
2023/04/03 09:35:19;;;;;;;4.38;1.92;;;7.50;97.30;;;;;;5032730;28;20394;-48
2023/04/03 09:37:47;;;;;;;2.58;1.92;;;7.40;97.30;;;;;;5033229;28;20022;-46
2023/04/03 09:40:25;;;;;;;2.83;1.55;;;7.30;97.40;;;;;;5031663;28;20663;-49
2023/04/03 09:42:56;;;;;;;4.43;1.63;;;7.30;97.30;;;;;;5031198;28;20068;-47
2023/04/03 09:45:27;;;;;;;7.30;1.65;;;8.10;97.00;;;;;;5031881;28;20032;-46
2023/04/03 09:48:08;;;;;;;4.80;2.33;;;7.90;96.70;;;;;;5032793;28;20041;-44
2023/04/03 09:50:35;;;;;;;3.80;1.60;;;7.80;96.20;;;;;;5031146;28;20079;-46
2023/04/03 09:53:25;;;;;;;3.10;1.73;;;7.60;96.70;;;;;;5032328;28;20064;-48
2023/04/03 09:55:50;;;;;;;5.30;2.00;;;7.80;97.00;;;;;;5032744;28;20108;-46
2023/04/03 09:58:50;;;;;;;6.35;2.08;;;8.10;96.90;;;;;;5032490;28;20073;-50
2023/04/03 10:01:25;;;;;;;4.43;1.42;;;7.90;96.80;;;;;;4984510;28;20081;-48
2023/04/03 10:04:12;;;;;;;2.45;1.83;;;8.30;97.00;;;;;;5029676;28;20022;-48
2023/04/03 10:06:46;;;;;;;4.22;1.48;;;8.50;96.60;;;;;;5029568;28;20121;-49
2023/04/03 10:09:25;;;;;;;4.53;1.70;;;8.30;96.10;;;;;;5032573;28;20029;-56
2023/04/03 10:12:05;;;;;;;4.45;1.65;;;8.40;96.20;;;;;;5027893;28;20033;-53
2023/04/03 10:14:36;;;;;;;5.10;1.85;;;8.30;96.60;;;;;;5032049;28;20026;-50
2023/04/03 10:17:29;;;;;;;3.13;1.63;;;8.00;96.50;;;;;;5031124;28;20021;-52
2023/04/03 10:20:16;;;;;;;3.10;1.75;;;8.00;96.90;;;;;;5029055;28;20037;-53
2023/04/03 10:23:19;;;;;;;4.10;1.95;;;8.50;96.80;;;;;;5013071;28;20022;-55
2023/04/03 10:26:32;;;;;;;4.65;2.10;;;8.40;96.50;;;;;;5030331;28;20028;-50
2023/04/03 10:29:24;;;;;;;3.35;2.20;;;7.80;97.00;;;;;;5031156;28;20130;-55
2023/04/03 10:31:59;;;;;;;12.70;2.00;;;7.50;97.10;;;;;;5023425;28;20045;-51
2023/04/03 10:34:33;;;;;;;3.80;1.80;;;7.80;97.10;;;;;;5023487;28;20068;-52
2023/04/03 10:37:14;;;;;;;3.90;2.05;;;8.10;97.20;;;;;;5032257;28;20063;-51
2023/04/03 10:39:54;;;;;;;4.30;1.75;;;8.20;96.80;;;;;;5013645;28;20021;-52
2023/04/03 10:42:29;;;;;;;2.50;1.75;;;8.30;97.10;;;;;;5032236;28;20400;-53
2023/04/03 10:45:26;;;;;;;2.10;1.80;;;8.10;96.00;;;;;;5032222;28;20053;-50
2023/04/03 10:48:09;;;;;;;4.60;2.20;;;7.90;96.70;;;;;;5032442;28;20030;-53
2023/04/03 10:50:58;;;;;;;5.38;2.50;;;7.80;97.10;;;;;;5031717;28;20029;-51
2023/04/03 10:53:32;;;;;;;6.70;1.92;;;7.60;96.90;;;;;;5016739;28;20053;-49
2023/04/03 10:56:20;;;;;;;4.90;2.33;;;7.80;97.50;;;;;;5027236;28;20021;-50
2023/04/03 10:58:48;;;;;;;4.00;2.20;;;7.80;96.60;;;;;;5022012;28;20022;-51
2023/04/03 11:01:18;;;;;;;2.83;1.55;;;7.60;97.20;;;;;;5035917;28;20033;-58
2023/04/03 11:03:53;;;;;;;7.00;2.20;;;7.80;97.40;;;;;;5019442;28;20065;-51
2023/04/03 11:06:23;;;;;;;5.35;2.08;;;8.00;97.10;;;;;;5018140;28;20050;-54
2023/04/03 11:09:03;;;;;;;7.68;2.47;;;7.80;96.90;;;;;;5015956;28;20541;-51
2023/04/03 11:11:32;;;;;;;4.93;2.05;;;7.70;97.20;;;;;;4998444;28;20437;-50
2023/04/03 11:14:13;;;;;;;4.63;2.03;;;7.70;97.20;;;;;;5013840;28;20022;-54
2023/04/03 11:16:45;;;;;;;3.45;1.98;;;7.80;96.50;;;;;;5031219;28;20392;-54
2023/04/03 11:19:46;;;;;;;3.33;2.00;;;7.70;97.10;;;;;;5023244;28;20030;-52
2023/04/03 11:22:28;;;;;;;6.68;1.73;;;7.80;97.40;;;;;;5024999;28;20026;-54
2023/04/03 11:25:08;;;;;;;2.75;1.92;;;7.80;96.50;;;;;;5013216;28;20038;-56
2023/04/03 11:28:01;;;;;;;3.38;2.28;;;7.80;97.10;;;;;;5031516;28;20481;-52
2023/04/03 11:30:49;;;;;;;4.38;2.05;;;7.90;96.80;;;;;;5022690;28;20026;-48
2023/04/03 11:33:42;;;;;;;3.83;1.77;;;8.10;96.50;;;;;;5011911;28;20498;-49
2023/04/03 11:36:12;;;;;;;6.85;2.13;;;7.90;96.60;;;;;;5016171;28;20049;-50
2023/04/03 11:38:45;;;;;;;7.47;2.08;;;7.70;96.90;;;;;;5030866;28;20087;-52
2023/04/03 11:41:13;;;;;;;3.28;1.80;;;7.70;96.50;;;;;;5024963;28;20017;-53
2023/04/03 11:43:42;;;;;;;5.43;1.92;;;7.60;96.40;;;;;;5016451;28;20493;-61
2023/04/03 11:46:09;;;;;;;5.15;3.20;;;7.70;96.30;;;;;;5030698;28;20072;-49
2023/04/03 11:48:34;;;;;;;3.25;1.88;;;7.90;95.80;;;;;;5031023;28;20116;-49
2023/04/03 11:51:01;;;;;;;4.88;2.28;;;8.00;95.50;;;;;;5016042;28;20065;-55
2023/04/03 11:53:39;;;;;;;4.35;2.08;;;7.90;95.60;;;;;;5011937;28;20038;-54
2023/04/03 11:56:23;;;;;;;2.38;1.60;;;8.00;94.70;;;;;;5011645;28;20029;-53
2023/04/03 11:59:10;;;;;;;4.82;1.85;;;8.00;94.90;;;;;;5011194;28;20030;-53
2023/04/03 12:01:49;;;;;;;4.05;1.70;;;7.80;95.00;;;;;;5029679;28;20124;-48
2023/04/03 12:04:17;;;;;;;4.50;1.98;;;7.70;94.50;;;;;;5031598;28;20075;-50
2023/04/03 12:06:49;;;;;;;1.70;1.42;;;7.70;95.10;;;;;;5030177;28;20022;-49
2023/04/03 12:09:34;;;;;;;2.90;1.45;;;7.90;94.10;;;;;;5029288;28;20436;-48
2023/04/03 12:12:21;;;;;;;1.85;1.70;;;8.20;94.30;;;;;;5032636;28;20021;-52
2023/04/03 12:14:47;;;;;;;1.42;1.33;;;8.30;93.50;;;;;;5028288;28;20550;-47
2023/04/03 12:17:26;;;;;;;5.20;2.03;;;8.30;92.90;;;;;;5033029;28;20037;-47
2023/04/03 12:19:52;;;;;;;10.63;5.88;;;8.30;92.80;;;;;;5031635;28;20029;-52
2023/04/03 12:22:20;;;;;;;42.22;24.27;;;8.10;93.00;;;;;;5032612;28;20109;-54
2023/04/03 12:24:49;;;;;;;2.33;1.90;;;8.20;93.30;;;;;;5034454;28;20021;-53
2023/04/03 12:27:26;;;;;;;4.88;2.03;;;8.20;93.30;;;;;;5033986;28;20034;-54
2023/04/03 12:30:03;;;;;;;3.28;1.50;;;8.10;92.00;;;;;;5014487;28;20112;-53
2023/04/03 12:32:51;;;;;;;3.10;1.85;;;8.20;92.50;;;;;;5014607;28;20065;-54
2023/04/03 12:35:35;;;;;;;3.65;1.98;;;8.40;92.30;;;;;;5014756;28;20038;-56
2023/04/03 12:38:40;;;;;;;6.80;1.50;;;8.40;90.90;;;;;;5014642;28;20072;-51
2023/04/03 12:41:30;;;;;;;2.60;1.60;;;8.30;90.80;;;;;;5014656;28;20037;-49
2023/04/03 12:44:34;;;;;;;4.90;1.45;;;8.20;90.50;;;;;;4996851;28;20076;-52
2023/04/03 12:47:01;;;;;;;2.67;1.92;;;8.20;86.60;;;;;;5014573;28;20014;-49
2023/04/03 12:49:42;;;;;;;1.52;1.42;;;8.30;90.20;;;;;;4996974;28;20553;-51
2023/04/03 12:52:22;;;;;;;2.13;1.77;;;8.40;90.30;;;;;;5014430;28;20065;-52
2023/04/03 12:54:49;;;;;;;3.63;2.13;;;8.50;89.70;;;;;;5014640;28;20033;-53
2023/04/03 12:57:26;;;;;;;8.00;2.35;;;8.60;91.50;;;;;;5014523;28;20030;-50
2023/04/03 12:59:51;;;;;;;6.45;1.60;;;8.60;90.40;;;;;;5014566;28;20109;-53
2023/04/03 13:02:23;;;;;;;5.38;1.92;;;8.50;88.20;;;;;;5014339;28;20092;-48
2023/04/03 13:04:50;;;;;;;2.38;1.80;;;8.50;89.90;;;;;;5014668;28;20026;-48
2023/04/03 13:07:27;;;;;;;5.38;1.45;;;8.40;89.60;;;;;;5014451;28;20156;-52
2023/04/03 13:10:12;;;;;;;3.72;1.73;;;8.30;88.60;;;;;;5014557;28;20030;-52